sensor_id;sensor_type;location;lat;lon;timestamp;P1;durP1;ratioP1;P2;durP2;ratioP2
30378;SDS011;17168;49.164;9.060;2022-12-07T12:29:01;15.63;;;8.82;;
30378;SDS011;17168;49.164;9.060;2022-12-07T12:31:36;17.50;;;9.65;;
30378;SDS011;17168;49.164;9.060;2022-12-07T12:39:38;18.05;;;9.32;;
30378;SDS011;17168;49.164;9.060;2022-12-07T12:42:17;16.67;;;8.70;;
30378;SDS011;17168;49.164;9.060;2022-12-07T12:47:54;16.17;;;9.88;;
30378;SDS011;17168;49.164;9.060;2022-12-07T12:50:29;16.15;;;9.35;;
30378;SDS011;17168;49.164;9.060;2022-12-07T12:53:12;14.57;;;8.07;;
30378;SDS011;17168;49.164;9.060;2022-12-07T12:56:03;13.95;;;7.97;;
30378;SDS011;17168;49.164;9.060;2022-12-07T13:15:34;18.23;;;9.32;;
30378;SDS011;17168;49.164;9.060;2022-12-07T13:20:56;18.02;;;8.45;;
30378;SDS011;17168;49.164;9.060;2022-12-07T13:26:13;18.15;;;7.93;;
30378;SDS011;17168;49.164;9.060;2022-12-07T13:28:48;15.80;;;8.13;;
30378;SDS011;17168;49.164;9.060;2022-12-07T13:31:30;18.98;;;8.98;;
30378;SDS011;17168;49.164;9.060;2022-12-07T13:34:26;14.68;;;6.68;;
30378;SDS011;17168;49.164;9.060;2022-12-07T13:37:02;16.58;;;8.05;;
30378;SDS011;17168;49.164;9.060;2022-12-07T13:39:44;18.17;;;8.15;;
30378;SDS011;17168;49.164;9.060;2022-12-07T13:42:19;17.83;;;9.32;;
30378;SDS011;17168;49.164;9.060;2022-12-07T13:44:57;17.08;;;8.93;;
30378;SDS011;17168;49.164;9.060;2022-12-07T13:47:34;20.85;;;9.32;;
30378;SDS011;17168;49.164;9.060;2022-12-07T13:50:22;16.30;;;7.53;;
30378;SDS011;17168;49.164;9.060;2022-12-07T13:52:57;16.95;;;8.32;;
30378;SDS011;17168;49.164;9.060;2022-12-07T13:55:29;18.35;;;8.65;;
30378;SDS011;17168;49.164;9.060;2022-12-07T13:58:01;16.33;;;8.48;;
30378;SDS011;17168;49.164;9.060;2022-12-07T14:00:33;17.55;;;8.57;;
30378;SDS011;17168;49.164;9.060;2022-12-07T14:03:20;19.20;;;9.75;;
30378;SDS011;17168;49.164;9.060;2022-12-07T14:08:37;17.48;;;8.68;;
30378;SDS011;17168;49.164;9.060;2022-12-07T14:11:09;18.00;;;8.55;;
30378;SDS011;17168;49.164;9.060;2022-12-07T14:13:53;17.10;;;8.63;;
30378;SDS011;17168;49.164;9.060;2022-12-07T14:16:30;19.67;;;8.75;;
30378;SDS011;17168;49.164;9.060;2022-12-07T14:19:03;17.80;;;9.35;;
30378;SDS011;17168;49.164;9.060;2022-12-07T14:21:37;18.45;;;9.02;;
30378;SDS011;17168;49.164;9.060;2022-12-07T14:24:15;17.13;;;8.75;;
30378;SDS011;17168;49.164;9.060;2022-12-07T14:26:49;17.58;;;9.68;;
30378;SDS011;17168;49.164;9.060;2022-12-07T14:29:22;15.82;;;8.93;;
30378;SDS011;17168;49.164;9.060;2022-12-07T14:32:13;16.50;;;8.25;;
30378;SDS011;17168;49.164;9.060;2022-12-07T14:34:54;17.10;;;8.80;;
30378;SDS011;17168;49.164;9.060;2022-12-07T14:37:29;13.52;;;7.88;;
30378;SDS011;17168;49.164;9.060;2022-12-07T14:40:01;20.25;;;10.38;;
30378;SDS011;17168;49.164;9.060;2022-12-07T14:42:34;17.80;;;8.50;;
30378;SDS011;17168;49.164;9.060;2022-12-07T14:45:11;20.38;;;9.82;;
30378;SDS011;17168;49.164;9.060;2022-12-07T14:47:45;19.42;;;10.05;;
30378;SDS011;17168;49.164;9.060;2022-12-07T14:50:38;17.17;;;8.63;;
30378;SDS011;17168;49.164;9.060;2022-12-07T14:53:35;18.33;;;9.18;;
30378;SDS011;17168;49.164;9.060;2022-12-07T14:56:09;16.02;;;9.15;;
30378;SDS011;17168;49.164;9.060;2022-12-07T14:58:41;19.10;;;10.15;;
30378;SDS011;17168;49.164;9.060;2022-12-07T15:01:12;20.58;;;10.52;;
30378;SDS011;17168;49.164;9.060;2022-12-07T15:03:44;23.80;;;9.63;;
30378;SDS011;17168;49.164;9.060;2022-12-07T15:06:17;20.02;;;10.18;;
30378;SDS011;17168;49.164;9.060;2022-12-07T15:08:51;18.50;;;9.57;;
30378;SDS011;17168;49.164;9.060;2022-12-07T15:11:22;18.52;;;9.60;;
30378;SDS011;17168;49.164;9.060;2022-12-07T16:54:41;24.33;;;12.60;;
30378;SDS011;17168;49.164;9.060;2022-12-07T16:57:15;25.23;;;12.68;;
30378;SDS011;17168;49.164;9.060;2022-12-07T16:59:53;21.88;;;11.10;;
30378;SDS011;17168;49.164;9.060;2022-12-07T17:02:25;24.00;;;11.23;;
30378;SDS011;17168;49.164;9.060;2022-12-07T17:05:08;26.42;;;13.15;;
30378;SDS011;17168;49.164;9.060;2022-12-07T17:07:40;22.30;;;11.25;;
30378;SDS011;17168;49.164;9.060;2022-12-07T17:38:09;20.73;;;9.77;;
30378;SDS011;17168;49.164;9.060;2022-12-07T17:45:46;18.08;;;9.10;;
30378;SDS011;17168;49.164;9.060;2022-12-07T17:48:17;16.65;;;9.15;;
30378;SDS011;17168;49.164;9.060;2022-12-07T17:50:49;16.77;;;8.57;;
30378;SDS011;17168;49.164;9.060;2022-12-07T17:53:40;16.02;;;9.90;;
30378;SDS011;17168;49.164;9.060;2022-12-07T18:54:46;22.08;;;11.07;;
